EGKB - Biggin Hill
Distance from station: E 5mi, 14km
Updated: 02/21/2018 2:50pm
NOT Current
Mist, Mostly cloudy
Mist, Mostly cloudy
 Wind from NNE
Wind: NNE 7 mph , 11 km/h
Temperature: 37°F , 3°C
Wind Chill: 32°F , 0°C
Dew Point: 37°F , 3°C
Humidity: 100%
Barometer: 30.24 inHg , 1024 hPa
Summary: Mist
Clouds: Mostly Cloudy
Visibility: 2 miles , 3 km
Cloud details: Mostly Cloudy 400 ft
2018/02/21 22:50 EGKB 212250Z 03006KT 3000 BR BKN004 03/03 Q1024